Terminal Aerodrome Forecast
Issued by NWS Sioux Falls, SD

Home | Current Version | Previous Version | Graphics & Text | Print | Product List | Glossary On
Versions: 1 2 3 4 5 6 7 8 9 10 11 12
000
FTUS43 KFSD 152320
TAFHON
TAF
KHON 152320Z 1600/1624 35017G24KT 1 1/2SM -SN BKN020
     FM160100 35016G23KT P6SM BKN025
     FM160200 33014G21KT P6SM SCT070
     FM160500 31008KT P6SM SKC
     FM160800 28006KT P6SM SKC
     FM161100 25006KT P6SM SKC
     FM161400 22006KT P6SM SKC
     FM161800 19012KT P6SM SKC=

USA.gov is the U.S. government's official web portal to all federal, state and local government web resources and services.